»·PEaware :: SWA1966 KSAN-KLAS

SWA1966 :: KSAN-KLAS

FLIGHT INFORMATION

Flight Status: Arrived
Operator:
Southwest Airlines
More flights by this operator :: More flights under this callsign
Pilot: Matthew M. (8235)
Aircraft: BOEING 737-800
(B738)
More flights by this aircraft type
Origin: KSAN San Diego Intl-Lindbergh
United States
Destination: KLAS McCarran Intl
United States
More flights between these airports :: More routes between these airports
Route: +PADRZ2 CHKNN SEBBY YELAH MISEN KEPEC6
File this flight plan on PilotEdge
Remarks: PBN / A1B1C1D1S1S2 DOF / 180110 OPR / SWA PER / C
Altitude:
(Current/Filed)
37,000ft
Speed:
(Current/Filed)
455kts
Departed: 10-Jan-18 02:47 PM
Arrived: 10-Jan-18 03:53 PM
Distance/Time
Traveled:
225nm/1:06
Distance/Time
To Go:
Arrived

Flight Plot

Page will automatically refresh every two minutes.

Flight plan parsing failed; only flown route is shown


Map Options




Map Legend


Flown Route
Filed Route
Departure Airport
Arrival Airport
Navaid (VOR, NDB)
Fix

Horizontal Profiles

Position Reports

Time Latitude Longitude Heading Altitude Ground
Speed
10-Jan-18 14:21 32.733276 -117.196037 199 19ft 0kts
10-Jan-18 14:22 32.733276 -117.196037 199 19ft 0kts
10-Jan-18 14:23 32.733276 -117.196037 199 19ft 0kts
10-Jan-18 14:24 32.733276 -117.196037 199 19ft 0kts
10-Jan-18 14:25 32.733276 -117.196037 199 19ft 0kts
10-Jan-18 14:26 32.733276 -117.196037 199 19ft 0kts
10-Jan-18 14:27 32.733276 -117.196037 199 19ft 0kts
10-Jan-18 14:28 32.733276 -117.196037 199 19ft 0kts
10-Jan-18 14:29 32.733276 -117.196037 199 19ft 0kts
10-Jan-18 14:30 32.733276 -117.196037 199 18ft 0kts
10-Jan-18 14:31 32.733276 -117.196037 199 18ft 0kts
10-Jan-18 14:32 32.733276 -117.196037 199 18ft 0kts
10-Jan-18 14:33 32.733276 -117.196037 199 18ft 0kts
10-Jan-18 14:34 32.733276 -117.196037 199 18ft 0kts
10-Jan-18 14:35 32.733276 -117.196037 199 18ft 0kts
10-Jan-18 14:36 32.733276 -117.196037 199 18ft 0kts
10-Jan-18 14:37 32.733276 -117.196037 199 18ft 0kts
10-Jan-18 14:38 32.733276 -117.196037 199 18ft 0kts
10-Jan-18 14:39 32.733276 -117.196037 199 18ft 0kts
10-Jan-18 14:40 32.733276 -117.196037 199 18ft 0kts
10-Jan-18 14:41 32.733276 -117.196037 199 19ft 0kts
10-Jan-18 14:42 32.733462 -117.195956 199 19ft 2kts
10-Jan-18 14:43 32.733977 -117.195940 141 19ft 2kts
10-Jan-18 14:44 32.734115 -117.196218 105 18ft 0kts
10-Jan-18 14:45 32.734115 -117.196218 105 18ft 0kts
10-Jan-18 14:46 32.734115 -117.196218 105 18ft 0kts
10-Jan-18 14:47 32.733344 -117.193053 105 21ft 21kts
10-Jan-18 14:48 32.731510 -117.185365 105 17ft 22kts
10-Jan-18 14:49 32.730027 -117.179268 103 21ft 21kts
10-Jan-18 14:50 32.729475 -117.176814 73 22ft 0kts
10-Jan-18 14:51 32.729489 -117.176753 73 22ft 0kts
10-Jan-18 14:52 32.729676 -117.176096 66 24ft 8kts
10-Jan-18 14:53 32.737151 -117.203436 288 512ft 166kts
10-Jan-18 14:54 32.762958 -117.255507 303 2060ft 227kts
10-Jan-18 14:55 32.795732 -117.312008 302 4042ft 264kts
10-Jan-18 14:56 32.846207 -117.390711 304 8409ft 254kts
10-Jan-18 14:57 32.881344 -117.445340 308 10721ft 270kts
10-Jan-18 14:58 32.927134 -117.516354 310 13427ft 287kts
10-Jan-18 14:59 32.983942 -117.604996 310 14981ft 293kts
10-Jan-18 15:00 33.025249 -117.669554 310 15780ft 302kts
10-Jan-18 15:01 33.078812 -117.744914 320 19211ft 303kts
10-Jan-18 15:02 33.141924 -117.809087 321 22233ft 312kts
10-Jan-18 15:03 33.204589 -117.872425 321 24827ft 322kts
10-Jan-18 15:04 33.274198 -117.940576 321 27517ft 326kts
10-Jan-18 15:05 33.342492 -118.007542 321 30312ft 314kts
10-Jan-18 15:06 33.408496 -118.072226 321 32610ft 305kts
10-Jan-18 15:07 33.472968 -118.135380 321 34510ft 298kts
10-Jan-18 15:08 33.536362 -118.197444 321 36014ft 295kts
10-Jan-18 15:09 33.603404 -118.251531 333 37110ft 299kts
10-Jan-18 15:10 33.682081 -118.294666 333 37114ft 328kts
10-Jan-18 15:11 33.772518 -118.305906 24 37137ft 401kts
10-Jan-18 15:12 33.841243 -118.196751 43 37095ft 440kts
10-Jan-18 15:13 33.909526 -118.081064 43 37085ft 439kts
10-Jan-18 15:14 33.975147 -117.970164 43 37094ft 439kts
10-Jan-18 15:15 34.042710 -117.856157 42 37113ft 439kts
10-Jan-18 15:16 34.113114 -117.742370 39 37138ft 433kts
10-Jan-18 15:17 34.186053 -117.634076 39 37121ft 433kts
10-Jan-18 15:18 34.261428 -117.521882 39 37110ft 433kts
10-Jan-18 15:19 34.336926 -117.409651 39 37105ft 433kts
10-Jan-18 15:20 34.411913 -117.298302 39 37092ft 434kts
10-Jan-18 15:21 34.487970 -117.185528 39 37092ft 433kts
10-Jan-18 15:22 34.565481 -117.070826 39 35618ft 453kts
10-Jan-18 15:23 34.643582 -116.955196 38 33586ft 433kts
10-Jan-18 15:24 34.718885 -116.844058 38 31559ft 421kts
10-Jan-18 15:25 34.792333 -116.735753 38 29544ft 413kts
10-Jan-18 15:26 34.866334 -116.633139 29 27523ft 388kts
10-Jan-18 15:27 34.949051 -116.552628 27 26041ft 377kts
10-Jan-18 15:28 35.029843 -116.474191 27 24621ft 367kts
10-Jan-18 15:29 35.108012 -116.396800 32 24022ft 369kts
10-Jan-18 15:30 35.177538 -116.308971 35 24020ft 374kts
10-Jan-18 15:31 35.249943 -116.217226 35 22940ft 372kts
10-Jan-18 15:32 35.320004 -116.128557 35 20839ft 358kts
10-Jan-18 15:33 35.388329 -116.042186 36 18775ft 347kts
10-Jan-18 15:34 35.452350 -115.961261 36 17347ft 318kts
10-Jan-18 15:35 35.511055 -115.887228 37 16023ft 308kts
10-Jan-18 15:36 35.570491 -115.812281 37 14829ft 305kts
10-Jan-18 15:37 35.629042 -115.738494 38 13632ft 300kts
10-Jan-18 15:38 35.686712 -115.665694 39 12992ft 296kts
10-Jan-18 15:39 35.744011 -115.592400 39 12991ft 298kts
10-Jan-18 15:40 35.762638 -115.496619 117 13005ft 337kts
10-Jan-18 15:41 35.682524 -115.466874 215 13005ft 317kts
10-Jan-18 15:42 35.667145 -115.550555 314 13005ft 268kts
10-Jan-18 15:43 35.738529 -115.557009 345 13004ft 271kts
10-Jan-18 15:44 35.801462 -115.594406 0 12997ft 276kts
10-Jan-18 15:45 35.877066 -115.574401 1 12988ft 277kts
10-Jan-18 15:46 35.953430 -115.564268 14 12963ft 283kts
10-Jan-18 15:47 35.997984 -115.479278 61 12964ft 300kts
10-Jan-18 15:48 36.026950 -115.387096 70 11616ft 311kts
10-Jan-18 15:49 36.024701 -115.287477 91 10112ft 292kts
10-Jan-18 15:50 36.017776 -115.190676 93 8975ft 275kts
10-Jan-18 15:51 36.011568 -115.100018 91 8084ft 256kts
10-Jan-18 15:52 36.006319 -115.014769 91 6315ft 253kts
10-Jan-18 15:53 36.004999 -114.932735 62 4625ft 204kts
10-Jan-18 15:54 36.042057 -114.928127 297 4360ft 157kts
10-Jan-18 15:55 36.056273 -114.979008 291 4023ft 156kts
10-Jan-18 15:56 36.068794 -115.026800 281 3770ft 149kts
10-Jan-18 15:57 36.072776 -115.077677 273 2884ft 149kts
10-Jan-18 15:58 36.073628 -115.127681 271 2055ft 145kts
10-Jan-18 15:59 36.074566 -115.145622 302 2102ft 21kts
10-Jan-18 16:00 36.078172 -115.147118 336 2102ft 7kts
10-Jan-18 16:01 36.080019 -115.147877 334 2099ft 8kts

Navigation Log

Ident Type
Flight plan parsing failed, navigation log unavailable